sensor_id;sensor_type;location;lat;lon;timestamp;P1;durP1;ratioP1;P2;durP2;ratioP2
71800;SDS011;59647;55.838;37.292;2023-08-31T00:00:29;6.90;;;3.95;;
71800;SDS011;59647;55.838;37.292;2023-08-31T00:02:57;7.05;;;4.25;;
71800;SDS011;59647;55.838;37.292;2023-08-31T00:05:23;10.27;;;5.47;;
71800;SDS011;59647;55.838;37.292;2023-08-31T00:07:50;10.35;;;5.00;;
71800;SDS011;59647;55.838;37.292;2023-08-31T00:10:16;12.48;;;5.00;;
71800;SDS011;59647;55.838;37.292;2023-08-31T00:12:43;10.50;;;5.28;;
71800;SDS011;59647;55.838;37.292;2023-08-31T00:15:09;7.70;;;4.32;;
71800;SDS011;59647;55.838;37.292;2023-08-31T00:17:35;12.25;;;4.55;;
71800;SDS011;59647;55.838;37.292;2023-08-31T00:20:01;12.23;;;4.78;;
71800;SDS011;59647;55.838;37.292;2023-08-31T00:22:31;13.57;;;5.07;;
71800;SDS011;59647;55.838;37.292;2023-08-31T00:24:56;9.25;;;5.05;;
71800;SDS011;59647;55.838;37.292;2023-08-31T00:27:22;9.90;;;4.72;;
71800;SDS011;59647;55.838;37.292;2023-08-31T00:29:48;12.52;;;5.32;;
71800;SDS011;59647;55.838;37.292;2023-08-31T00:32:15;12.70;;;5.20;;
71800;SDS011;59647;55.838;37.292;2023-08-31T00:34:41;8.73;;;4.80;;
71800;SDS011;59647;55.838;37.292;2023-08-31T00:37:06;8.80;;;4.13;;
71800;SDS011;59647;55.838;37.292;2023-08-31T00:39:32;9.90;;;4.60;;
71800;SDS011;59647;55.838;37.292;2023-08-31T00:41:58;11.32;;;5.15;;
71800;SDS011;59647;55.838;37.292;2023-08-31T00:44:24;11.15;;;5.45;;
71800;SDS011;59647;55.838;37.292;2023-08-31T00:46:50;11.20;;;4.90;;
71800;SDS011;59647;55.838;37.292;2023-08-31T00:49:17;12.65;;;6.07;;
71800;SDS011;59647;55.838;37.292;2023-08-31T00:51:43;15.80;;;5.70;;
71800;SDS011;59647;55.838;37.292;2023-08-31T00:54:18;11.60;;;5.10;;
71800;SDS011;59647;55.838;37.292;2023-08-31T00:56:46;13.43;;;5.57;;
71800;SDS011;59647;55.838;37.292;2023-08-31T00:59:17;17.00;;;6.25;;
71800;SDS011;59647;55.838;37.292;2023-08-31T01:01:59;10.75;;;5.20;;
71800;SDS011;59647;55.838;37.292;2023-08-31T01:04:33;11.82;;;4.82;;
71800;SDS011;59647;55.838;37.292;2023-08-31T01:07:21;11.60;;;5.72;;
71800;SDS011;59647;55.838;37.292;2023-08-31T01:10:11;11.80;;;6.68;;
71800;SDS011;59647;55.838;37.292;2023-08-31T01:15:49;11.10;;;5.50;;
71800;SDS011;59647;55.838;37.292;2023-08-31T01:18:21;8.40;;;4.82;;
71800;SDS011;59647;55.838;37.292;2023-08-31T01:26:17;11.13;;;5.40;;
71800;SDS011;59647;55.838;37.292;2023-08-31T01:28:43;9.98;;;4.72;;
71800;SDS011;59647;55.838;37.292;2023-08-31T01:31:10;8.52;;;4.25;;
71800;SDS011;59647;55.838;37.292;2023-08-31T01:33:35;10.77;;;5.68;;
71800;SDS011;59647;55.838;37.292;2023-08-31T01:36:01;14.10;;;6.60;;
71800;SDS011;59647;55.838;37.292;2023-08-31T01:38:33;13.52;;;5.43;;
71800;SDS011;59647;55.838;37.292;2023-08-31T01:41:05;12.70;;;6.00;;
71800;SDS011;59647;55.838;37.292;2023-08-31T01:43:35;13.38;;;6.28;;
71800;SDS011;59647;55.838;37.292;2023-08-31T01:46:02;15.57;;;6.43;;
71800;SDS011;59647;55.838;37.292;2023-08-31T01:48:28;11.63;;;5.93;;
71800;SDS011;59647;55.838;37.292;2023-08-31T01:50:54;13.40;;;6.53;;
71800;SDS011;59647;55.838;37.292;2023-08-31T01:53:19;13.73;;;6.57;;
71800;SDS011;59647;55.838;37.292;2023-08-31T01:55:45;13.93;;;6.38;;
71800;SDS011;59647;55.838;37.292;2023-08-31T01:58:11;15.73;;;6.97;;
71800;SDS011;59647;55.838;37.292;2023-08-31T02:00:37;10.18;;;6.47;;
71800;SDS011;59647;55.838;37.292;2023-08-31T02:03:03;13.13;;;6.97;;
71800;SDS011;59647;55.838;37.292;2023-08-31T02:05:29;15.18;;;7.07;;
71800;SDS011;59647;55.838;37.292;2023-08-31T02:07:55;17.55;;;7.43;;
71800;SDS011;59647;55.838;37.292;2023-08-31T02:10:22;16.63;;;8.35;;
71800;SDS011;59647;55.838;37.292;2023-08-31T02:13:08;20.52;;;8.30;;
71800;SDS011;59647;55.838;37.292;2023-08-31T02:15:37;17.00;;;7.80;;
71800;SDS011;59647;55.838;37.292;2023-08-31T02:18:04;15.23;;;7.40;;
71800;SDS011;59647;55.838;37.292;2023-08-31T02:20:30;17.30;;;7.78;;
71800;SDS011;59647;55.838;37.292;2023-08-31T02:22:56;19.15;;;8.60;;
71800;SDS011;59647;55.838;37.292;2023-08-31T02:25:23;14.77;;;7.20;;
71800;SDS011;59647;55.838;37.292;2023-08-31T02:27:53;19.27;;;8.38;;
71800;SDS011;59647;55.838;37.292;2023-08-31T02:30:19;15.55;;;8.35;;
71800;SDS011;59647;55.838;37.292;2023-08-31T02:32:45;16.85;;;7.97;;
71800;SDS011;59647;55.838;37.292;2023-08-31T02:35:13;17.90;;;8.20;;
71800;SDS011;59647;55.838;37.292;2023-08-31T02:37:39;16.63;;;7.95;;
71800;SDS011;59647;55.838;37.292;2023-08-31T02:40:05;21.58;;;8.75;;
71800;SDS011;59647;55.838;37.292;2023-08-31T02:42:34;16.38;;;8.80;;
71800;SDS011;59647;55.838;37.292;2023-08-31T02:45:00;20.90;;;8.40;;
71800;SDS011;59647;55.838;37.292;2023-08-31T02:47:28;19.52;;;8.25;;
71800;SDS011;59647;55.838;37.292;2023-08-31T02:49:54;15.35;;;7.78;;
71800;SDS011;59647;55.838;37.292;2023-08-31T02:52:19;17.13;;;7.80;;
71800;SDS011;59647;55.838;37.292;2023-08-31T02:54:45;21.55;;;8.35;;
71800;SDS011;59647;55.838;37.292;2023-08-31T02:57:11;18.23;;;8.68;;
71800;SDS011;59647;55.838;37.292;2023-08-31T02:59:37;18.20;;;8.32;;
71800;SDS011;59647;55.838;37.292;2023-08-31T03:02:03;24.05;;;7.38;;
71800;SDS011;59647;55.838;37.292;2023-08-31T03:04:29;18.00;;;8.52;;
71800;SDS011;59647;55.838;37.292;2023-08-31T03:06:56;19.15;;;8.80;;
71800;SDS011;59647;55.838;37.292;2023-08-31T03:09:22;22.38;;;9.32;;
71800;SDS011;59647;55.838;37.292;2023-08-31T03:11:48;17.30;;;8.85;;
71800;SDS011;59647;55.838;37.292;2023-08-31T03:14:13;20.58;;;9.52;;
71800;SDS011;59647;55.838;37.292;2023-08-31T03:16:40;25.38;;;9.43;;
71800;SDS011;59647;55.838;37.292;2023-08-31T03:19:06;20.13;;;9.35;;
71800;SDS011;59647;55.838;37.292;2023-08-31T03:21:32;16.15;;;7.82;;
71800;SDS011;59647;55.838;37.292;2023-08-31T03:23:59;26.80;;;9.48;;
71800;SDS011;59647;55.838;37.292;2023-08-31T03:26:45;19.40;;;8.82;;
71800;SDS011;59647;55.838;37.292;2023-08-31T03:29:11;17.75;;;10.38;;
71800;SDS011;59647;55.838;37.292;2023-08-31T03:31:37;22.55;;;10.60;;
71800;SDS011;59647;55.838;37.292;2023-08-31T03:34:04;17.58;;;9.02;;
71800;SDS011;59647;55.838;37.292;2023-08-31T03:36:30;20.80;;;10.40;;
71800;SDS011;59647;55.838;37.292;2023-08-31T03:38:56;20.88;;;10.05;;
71800;SDS011;59647;55.838;37.292;2023-08-31T03:41:23;39.63;;;11.57;;
71800;SDS011;59647;55.838;37.292;2023-08-31T03:43:49;17.98;;;8.88;;
71800;SDS011;59647;55.838;37.292;2023-08-31T03:46:20;20.50;;;9.73;;
71800;SDS011;59647;55.838;37.292;2023-08-31T03:48:47;20.50;;;9.65;;
71800;SDS011;59647;55.838;37.292;2023-08-31T03:51:13;24.90;;;9.07;;
71800;SDS011;59647;55.838;37.292;2023-08-31T03:53:42;26.70;;;10.65;;
71800;SDS011;59647;55.838;37.292;2023-08-31T03:56:09;17.75;;;9.60;;
71800;SDS011;59647;55.838;37.292;2023-08-31T03:58:35;19.58;;;9.82;;
71800;SDS011;59647;55.838;37.292;2023-08-31T04:01:01;17.95;;;9.88;;
71800;SDS011;59647;55.838;37.292;2023-08-31T04:03:27;17.80;;;9.77;;
71800;SDS011;59647;55.838;37.292;2023-08-31T04:05:55;15.05;;;9.20;;
71800;SDS011;59647;55.838;37.292;2023-08-31T04:08:21;17.80;;;9.07;;
71800;SDS011;59647;55.838;37.292;2023-08-31T04:10:47;16.23;;;9.70;;
71800;SDS011;59647;55.838;37.292;2023-08-31T04:13:13;18.85;;;8.60;;
71800;SDS011;59647;55.838;37.292;2023-08-31T04:15:39;19.75;;;9.25;;
71800;SDS011;59647;55.838;37.292;2023-08-31T04:18:05;18.45;;;8.13;;
71800;SDS011;59647;55.838;37.292;2023-08-31T04:20:32;17.92;;;8.23;;
71800;SDS011;59647;55.838;37.292;2023-08-31T04:22:58;19.02;;;9.00;;
71800;SDS011;59647;55.838;37.292;2023-08-31T04:25:24;19.92;;;9.38;;
71800;SDS011;59647;55.838;37.292;2023-08-31T04:27:50;16.13;;;8.70;;
71800;SDS011;59647;55.838;37.292;2023-08-31T04:30:15;19.95;;;8.52;;
71800;SDS011;59647;55.838;37.292;2023-08-31T04:32:41;22.85;;;9.15;;
71800;SDS011;59647;55.838;37.292;2023-08-31T04:35:08;20.00;;;9.07;;
71800;SDS011;59647;55.838;37.292;2023-08-31T04:37:34;19.55;;;8.77;;
71800;SDS011;59647;55.838;37.292;2023-08-31T04:40:00;19.38;;;8.50;;
71800;SDS011;59647;55.838;37.292;2023-08-31T04:42:26;20.88;;;9.52;;
71800;SDS011;59647;55.838;37.292;2023-08-31T04:44:51;21.77;;;9.60;;
71800;SDS011;59647;55.838;37.292;2023-08-31T04:47:17;17.15;;;8.77;;
71800;SDS011;59647;55.838;37.292;2023-08-31T04:49:43;15.15;;;8.07;;
71800;SDS011;59647;55.838;37.292;2023-08-31T04:52:09;18.35;;;8.98;;
71800;SDS011;59647;55.838;37.292;2023-08-31T04:54:35;23.33;;;9.32;;
71800;SDS011;59647;55.838;37.292;2023-08-31T04:57:00;18.75;;;8.93;;
71800;SDS011;59647;55.838;37.292;2023-08-31T04:59:28;19.33;;;9.50;;
71800;SDS011;59647;55.838;37.292;2023-08-31T05:01:54;15.95;;;8.52;;
71800;SDS011;59647;55.838;37.292;2023-08-31T05:04:20;18.10;;;9.32;;
71800;SDS011;59647;55.838;37.292;2023-08-31T05:06:45;17.33;;;9.40;;
71800;SDS011;59647;55.838;37.292;2023-08-31T05:09:11;24.67;;;9.52;;
71800;SDS011;59647;55.838;37.292;2023-08-31T05:11:37;17.73;;;9.02;;
71800;SDS011;59647;55.838;37.292;2023-08-31T05:14:03;18.90;;;9.18;;
71800;SDS011;59647;55.838;37.292;2023-08-31T05:16:29;22.15;;;9.05;;
71800;SDS011;59647;55.838;37.292;2023-08-31T05:18:54;22.67;;;9.38;;
71800;SDS011;59647;55.838;37.292;2023-08-31T05:21:20;18.15;;;9.07;;
71800;SDS011;59647;55.838;37.292;2023-08-31T05:23:46;19.13;;;9.23;;
71800;SDS011;59647;55.838;37.292;2023-08-31T05:26:12;15.80;;;8.70;;
71800;SDS011;59647;55.838;37.292;2023-08-31T05:28:37;16.80;;;9.75;;
71800;SDS011;59647;55.838;37.292;2023-08-31T05:31:03;29.05;;;9.35;;
71800;SDS011;59647;55.838;37.292;2023-08-31T05:33:30;25.98;;;9.43;;
71800;SDS011;59647;55.838;37.292;2023-08-31T05:36:02;19.52;;;9.50;;
71800;SDS011;59647;55.838;37.292;2023-08-31T05:38:31;20.48;;;8.88;;
71800;SDS011;59647;55.838;37.292;2023-08-31T05:41:04;20.77;;;9.35;;
71800;SDS011;59647;55.838;37.292;2023-08-31T05:43:36;18.23;;;8.88;;
71800;SDS011;59647;55.838;37.292;2023-08-31T05:46:05;16.67;;;8.57;;
71800;SDS011;59647;55.838;37.292;2023-08-31T05:48:32;24.85;;;8.13;;
71800;SDS011;59647;55.838;37.292;2023-08-31T05:50:58;15.38;;;8.50;;
71800;SDS011;59647;55.838;37.292;2023-08-31T05:53:24;20.02;;;9.05;;
71800;SDS011;59647;55.838;37.292;2023-08-31T05:55:50;18.85;;;9.15;;
71800;SDS011;59647;55.838;37.292;2023-08-31T05:58:16;20.45;;;9.50;;
71800;SDS011;59647;55.838;37.292;2023-08-31T06:00:41;24.05;;;9.50;;
71800;SDS011;59647;55.838;37.292;2023-08-31T06:03:07;16.17;;;8.65;;
71800;SDS011;59647;55.838;37.292;2023-08-31T06:05:33;17.52;;;8.38;;
71800;SDS011;59647;55.838;37.292;2023-08-31T06:07:59;19.40;;;9.82;;
71800;SDS011;59647;55.838;37.292;2023-08-31T06:10:25;17.27;;;8.70;;
71800;SDS011;59647;55.838;37.292;2023-08-31T06:12:50;21.98;;;10.75;;
71800;SDS011;59647;55.838;37.292;2023-08-31T06:15:16;19.73;;;8.68;;
71800;SDS011;59647;55.838;37.292;2023-08-31T06:17:43;18.95;;;8.98;;
71800;SDS011;59647;55.838;37.292;2023-08-31T06:20:09;18.02;;;9.48;;
71800;SDS011;59647;55.838;37.292;2023-08-31T06:22:35;24.05;;;8.38;;
71800;SDS011;59647;55.838;37.292;2023-08-31T06:25:01;16.90;;;7.95;;
71800;SDS011;59647;55.838;37.292;2023-08-31T06:27:29;21.17;;;8.55;;
71800;SDS011;59647;55.838;37.292;2023-08-31T06:29:55;23.48;;;9.60;;
71800;SDS011;59647;55.838;37.292;2023-08-31T06:32:21;17.75;;;8.25;;
71800;SDS011;59647;55.838;37.292;2023-08-31T06:34:48;15.93;;;8.25;;
71800;SDS011;59647;55.838;37.292;2023-08-31T06:37:14;16.42;;;8.60;;
71800;SDS011;59647;55.838;37.292;2023-08-31T06:39:39;17.55;;;8.57;;
71800;SDS011;59647;55.838;37.292;2023-08-31T06:42:06;20.95;;;8.65;;
71800;SDS011;59647;55.838;37.292;2023-08-31T06:44:32;16.08;;;8.57;;
71800;SDS011;59647;55.838;37.292;2023-08-31T06:46:57;14.68;;;8.30;;
71800;SDS011;59647;55.838;37.292;2023-08-31T06:49:23;20.23;;;8.30;;
71800;SDS011;59647;55.838;37.292;2023-08-31T06:51:49;14.90;;;7.10;;
71800;SDS011;59647;55.838;37.292;2023-08-31T06:54:15;20.55;;;10.45;;
71800;SDS011;59647;55.838;37.292;2023-08-31T06:56:41;17.20;;;8.20;;
71800;SDS011;59647;55.838;37.292;2023-08-31T06:59:07;17.35;;;8.07;;
71800;SDS011;59647;55.838;37.292;2023-08-31T07:01:33;26.52;;;10.40;;
71800;SDS011;59647;55.838;37.292;2023-08-31T07:03:59;22.48;;;9.45;;
71800;SDS011;59647;55.838;37.292;2023-08-31T07:06:25;17.20;;;8.77;;
71800;SDS011;59647;55.838;37.292;2023-08-31T07:08:50;16.13;;;8.90;;
71800;SDS011;59647;55.838;37.292;2023-08-31T07:11:17;22.13;;;9.02;;
71800;SDS011;59647;55.838;37.292;2023-08-31T07:13:43;20.00;;;9.00;;
71800;SDS011;59647;55.838;37.292;2023-08-31T07:16:09;18.48;;;9.75;;
71800;SDS011;59647;55.838;37.292;2023-08-31T07:18:35;17.77;;;8.80;;
71800;SDS011;59647;55.838;37.292;2023-08-31T07:21:02;19.83;;;8.82;;
71800;SDS011;59647;55.838;37.292;2023-08-31T07:23:30;20.83;;;8.85;;
71800;SDS011;59647;55.838;37.292;2023-08-31T07:25:58;17.65;;;8.32;;
71800;SDS011;59647;55.838;37.292;2023-08-31T07:28:25;17.98;;;7.35;;
71800;SDS011;59647;55.838;37.292;2023-08-31T07:31:01;17.30;;;7.43;;
71800;SDS011;59647;55.838;37.292;2023-08-31T07:33:32;21.52;;;8.48;;
71800;SDS011;59647;55.838;37.292;2023-08-31T07:36:00;19.80;;;7.43;;
71800;SDS011;59647;55.838;37.292;2023-08-31T07:38:27;21.15;;;8.75;;
71800;SDS011;59647;55.838;37.292;2023-08-31T07:40:53;19.90;;;8.23;;
71800;SDS011;59647;55.838;37.292;2023-08-31T07:43:19;22.35;;;7.85;;
71800;SDS011;59647;55.838;37.292;2023-08-31T07:45:45;14.70;;;7.55;;
71800;SDS011;59647;55.838;37.292;2023-08-31T07:48:10;15.80;;;7.78;;
71800;SDS011;59647;55.838;37.292;2023-08-31T07:50:36;19.45;;;8.05;;
71800;SDS011;59647;55.838;37.292;2023-08-31T07:53:02;15.93;;;7.93;;
71800;SDS011;59647;55.838;37.292;2023-08-31T07:55:29;18.45;;;8.23;;
71800;SDS011;59647;55.838;37.292;2023-08-31T07:57:54;14.35;;;8.15;;
71800;SDS011;59647;55.838;37.292;2023-08-31T08:00:20;18.60;;;8.18;;
71800;SDS011;59647;55.838;37.292;2023-08-31T08:02:46;25.38;;;8.55;;
71800;SDS011;59647;55.838;37.292;2023-08-31T08:05:12;22.40;;;7.07;;
71800;SDS011;59647;55.838;37.292;2023-08-31T08:07:37;18.55;;;7.68;;
71800;SDS011;59647;55.838;37.292;2023-08-31T08:10:03;16.83;;;7.35;;
71800;SDS011;59647;55.838;37.292;2023-08-31T08:12:38;18.10;;;8.10;;
71800;SDS011;59647;55.838;37.292;2023-08-31T08:15:05;19.05;;;7.45;;
71800;SDS011;59647;55.838;37.292;2023-08-31T08:17:35;15.30;;;6.63;;
71800;SDS011;59647;55.838;37.292;2023-08-31T08:20:01;15.77;;;7.65;;
71800;SDS011;59647;55.838;37.292;2023-08-31T08:22:29;17.92;;;6.93;;
71800;SDS011;59647;55.838;37.292;2023-08-31T08:24:55;14.00;;;6.80;;
71800;SDS011;59647;55.838;37.292;2023-08-31T08:27:21;12.90;;;7.53;;
71800;SDS011;59647;55.838;37.292;2023-08-31T08:29:46;15.23;;;6.03;;
71800;SDS011;59647;55.838;37.292;2023-08-31T08:32:12;14.77;;;6.95;;
71800;SDS011;59647;55.838;37.292;2023-08-31T08:34:38;14.52;;;6.22;;
71800;SDS011;59647;55.838;37.292;2023-08-31T08:37:04;16.13;;;6.50;;
71800;SDS011;59647;55.838;37.292;2023-08-31T08:39:30;14.88;;;6.00;;
71800;SDS011;59647;55.838;37.292;2023-08-31T08:41:59;13.82;;;6.25;;
71800;SDS011;59647;55.838;37.292;2023-08-31T08:44:26;11.75;;;5.88;;
71800;SDS011;59647;55.838;37.292;2023-08-31T08:46:58;14.65;;;6.43;;
71800;SDS011;59647;55.838;37.292;2023-08-31T08:49:26;17.95;;;7.55;;
71800;SDS011;59647;55.838;37.292;2023-08-31T08:51:53;18.67;;;6.68;;
71800;SDS011;59647;55.838;37.292;2023-08-31T08:54:20;20.38;;;7.55;;
71800;SDS011;59647;55.838;37.292;2023-08-31T08:56:47;14.60;;;6.22;;
71800;SDS011;59647;55.838;37.292;2023-08-31T08:59:14;13.93;;;6.05;;
71800;SDS011;59647;55.838;37.292;2023-08-31T09:01:40;20.02;;;5.75;;
71800;SDS011;59647;55.838;37.292;2023-08-31T09:04:06;18.27;;;5.90;;
71800;SDS011;59647;55.838;37.292;2023-08-31T09:06:34;15.27;;;7.63;;
71800;SDS011;59647;55.838;37.292;2023-08-31T09:09:00;24.85;;;13.82;;
71800;SDS011;59647;55.838;37.292;2023-08-31T09:11:26;16.27;;;6.53;;
71800;SDS011;59647;55.838;37.292;2023-08-31T09:13:52;13.48;;;4.82;;
71800;SDS011;59647;55.838;37.292;2023-08-31T09:16:25;12.43;;;5.07;;
71800;SDS011;59647;55.838;37.292;2023-08-31T09:18:54;13.10;;;5.85;;
71800;SDS011;59647;55.838;37.292;2023-08-31T09:21:44;12.52;;;5.75;;
71800;SDS011;59647;55.838;37.292;2023-08-31T09:24:11;6.10;;;3.85;;
71800;SDS011;59647;55.838;37.292;2023-08-31T09:26:48;8.75;;;4.32;;
71800;SDS011;59647;55.838;37.292;2023-08-31T09:29:23;12.15;;;4.63;;
71800;SDS011;59647;55.838;37.292;2023-08-31T09:31:49;14.93;;;5.63;;
71800;SDS011;59647;55.838;37.292;2023-08-31T09:34:16;11.77;;;4.93;;
71800;SDS011;59647;55.838;37.292;2023-08-31T09:36:43;12.68;;;4.80;;
71800;SDS011;59647;55.838;37.292;2023-08-31T09:39:09;7.68;;;4.80;;
71800;SDS011;59647;55.838;37.292;2023-08-31T09:41:52;13.07;;;5.13;;
71800;SDS011;59647;55.838;37.292;2023-08-31T09:44:19;21.45;;;5.38;;
71800;SDS011;59647;55.838;37.292;2023-08-31T09:46:45;12.90;;;4.90;;
71800;SDS011;59647;55.838;37.292;2023-08-31T09:49:15;9.43;;;4.22;;
71800;SDS011;59647;55.838;37.292;2023-08-31T09:51:45;10.10;;;4.43;;
71800;SDS011;59647;55.838;37.292;2023-08-31T09:54:16;13.05;;;4.85;;
71800;SDS011;59647;55.838;37.292;2023-08-31T09:56:44;8.98;;;4.65;;
71800;SDS011;59647;55.838;37.292;2023-08-31T09:59:11;12.35;;;4.40;;
71800;SDS011;59647;55.838;37.292;2023-08-31T10:01:38;11.50;;;5.00;;
71800;SDS011;59647;55.838;37.292;2023-08-31T10:04:08;9.73;;;4.78;;
71800;SDS011;59647;55.838;37.292;2023-08-31T10:06:34;10.77;;;5.13;;
71800;SDS011;59647;55.838;37.292;2023-08-31T10:09:01;17.75;;;4.80;;
71800;SDS011;59647;55.838;37.292;2023-08-31T10:11:29;12.50;;;4.78;;
71800;SDS011;59647;55.838;37.292;2023-08-31T10:13:55;18.27;;;4.25;;
71800;SDS011;59647;55.838;37.292;2023-08-31T10:16:24;9.60;;;4.80;;
71800;SDS011;59647;55.838;37.292;2023-08-31T10:18:51;16.17;;;5.05;;
71800;SDS011;59647;55.838;37.292;2023-08-31T10:21:18;13.10;;;4.45;;
71800;SDS011;59647;55.838;37.292;2023-08-31T10:23:45;13.48;;;4.32;;
71800;SDS011;59647;55.838;37.292;2023-08-31T10:26:11;10.10;;;4.53;;
71800;SDS011;59647;55.838;37.292;2023-08-31T10:28:41;8.35;;;4.55;;
71800;SDS011;59647;55.838;37.292;2023-08-31T10:31:17;12.70;;;5.85;;
71800;SDS011;59647;55.838;37.292;2023-08-31T10:33:47;13.57;;;4.57;;
71800;SDS011;59647;55.838;37.292;2023-08-31T10:39:06;8.38;;;3.83;;
71800;SDS011;59647;55.838;37.292;2023-08-31T10:41:38;18.33;;;4.50;;
71800;SDS011;59647;55.838;37.292;2023-08-31T10:44:17;13.05;;;4.18;;
71800;SDS011;59647;55.838;37.292;2023-08-31T10:46:44;12.30;;;5.07;;
71800;SDS011;59647;55.838;37.292;2023-08-31T10:51:37;15.50;;;4.60;;
71800;SDS011;59647;55.838;37.292;2023-08-31T10:54:04;9.98;;;3.95;;
71800;SDS011;59647;55.838;37.292;2023-08-31T10:56:30;11.38;;;4.45;;
71800;SDS011;59647;55.838;37.292;2023-08-31T10:59:00;12.57;;;5.18;;
71800;SDS011;59647;55.838;37.292;2023-08-31T11:04:18;10.07;;;4.50;;
71800;SDS011;59647;55.838;37.292;2023-08-31T11:06:44;10.13;;;4.00;;
71800;SDS011;59647;55.838;37.292;2023-08-31T11:09:19;16.55;;;5.65;;
71800;SDS011;59647;55.838;37.292;2023-08-31T11:11:46;7.15;;;4.38;;
71800;SDS011;59647;55.838;37.292;2023-08-31T11:14:14;12.23;;;4.40;;
71800;SDS011;59647;55.838;37.292;2023-08-31T11:16:41;8.27;;;4.20;;
71800;SDS011;59647;55.838;37.292;2023-08-31T11:19:08;10.48;;;5.00;;
71800;SDS011;59647;55.838;37.292;2023-08-31T11:21:35;12.50;;;4.88;;
71800;SDS011;59647;55.838;37.292;2023-08-31T11:24:03;9.70;;;4.28;;
71800;SDS011;59647;55.838;37.292;2023-08-31T11:26:32;18.88;;;4.45;;
71800;SDS011;59647;55.838;37.292;2023-08-31T11:28:58;6.78;;;3.78;;
71800;SDS011;59647;55.838;37.292;2023-08-31T11:31:24;13.95;;;4.65;;
71800;SDS011;59647;55.838;37.292;2023-08-31T11:33:50;12.10;;;4.22;;
71800;SDS011;59647;55.838;37.292;2023-08-31T11:36:16;13.07;;;4.55;;
71800;SDS011;59647;55.838;37.292;2023-08-31T11:38:43;6.90;;;3.78;;
71800;SDS011;59647;55.838;37.292;2023-08-31T11:41:09;9.77;;;3.55;;
71800;SDS011;59647;55.838;37.292;2023-08-31T11:43:35;11.48;;;4.10;;
71800;SDS011;59647;55.838;37.292;2023-08-31T11:46:03;8.00;;;3.78;;
71800;SDS011;59647;55.838;37.292;2023-08-31T11:48:30;14.95;;;4.10;;
71800;SDS011;59647;55.838;37.292;2023-08-31T11:50:57;8.25;;;4.22;;
71800;SDS011;59647;55.838;37.292;2023-08-31T11:53:23;8.18;;;3.85;;
71800;SDS011;59647;55.838;37.292;2023-08-31T11:55:53;11.18;;;3.78;;
71800;SDS011;59647;55.838;37.292;2023-08-31T11:58:22;8.35;;;4.32;;
71800;SDS011;59647;55.838;37.292;2023-08-31T12:00:59;15.93;;;4.20;;
71800;SDS011;59647;55.838;37.292;2023-08-31T12:03:26;12.93;;;4.30;;
71800;SDS011;59647;55.838;37.292;2023-08-31T12:05:52;8.45;;;3.83;;
71800;SDS011;59647;55.838;37.292;2023-08-31T12:08:24;10.82;;;4.32;;
71800;SDS011;59647;55.838;37.292;2023-08-31T12:10:51;7.53;;;3.95;;
71800;SDS011;59647;55.838;37.292;2023-08-31T12:13:20;9.45;;;4.18;;
71800;SDS011;59647;55.838;37.292;2023-08-31T12:15:47;8.15;;;3.45;;
71800;SDS011;59647;55.838;37.292;2023-08-31T12:18:18;9.90;;;4.00;;
71800;SDS011;59647;55.838;37.292;2023-08-31T12:20:48;10.77;;;4.22;;
71800;SDS011;59647;55.838;37.292;2023-08-31T12:23:19;8.70;;;4.30;;
71800;SDS011;59647;55.838;37.292;2023-08-31T12:25:50;11.32;;;4.22;;
71800;SDS011;59647;55.838;37.292;2023-08-31T12:28:18;9.90;;;4.00;;
71800;SDS011;59647;55.838;37.292;2023-08-31T12:30:49;8.50;;;4.88;;
71800;SDS011;59647;55.838;37.292;2023-08-31T12:33:19;16.52;;;5.47;;
71800;SDS011;59647;55.838;37.292;2023-08-31T12:35:46;12.20;;;4.40;;
71800;SDS011;59647;55.838;37.292;2023-08-31T12:38:12;7.18;;;4.00;;
71800;SDS011;59647;55.838;37.292;2023-08-31T12:40:39;20.20;;;4.75;;
71800;SDS011;59647;55.838;37.292;2023-08-31T12:43:05;9.07;;;4.47;;
71800;SDS011;59647;55.838;37.292;2023-08-31T12:45:31;8.65;;;4.38;;
71800;SDS011;59647;55.838;37.292;2023-08-31T12:47:58;12.20;;;4.82;;
71800;SDS011;59647;55.838;37.292;2023-08-31T12:50:25;11.18;;;4.40;;
71800;SDS011;59647;55.838;37.292;2023-08-31T12:52:50;11.48;;;3.88;;
71800;SDS011;59647;55.838;37.292;2023-08-31T12:55:16;16.73;;;5.47;;
71800;SDS011;59647;55.838;37.292;2023-08-31T12:57:43;9.15;;;4.50;;
71800;SDS011;59647;55.838;37.292;2023-08-31T13:00:09;11.85;;;4.15;;
71800;SDS011;59647;55.838;37.292;2023-08-31T13:02:39;19.90;;;5.22;;
71800;SDS011;59647;55.838;37.292;2023-08-31T13:05:06;10.88;;;4.07;;
71800;SDS011;59647;55.838;37.292;2023-08-31T13:07:36;17.20;;;4.75;;
71800;SDS011;59647;55.838;37.292;2023-08-31T13:10:02;7.78;;;3.80;;
71800;SDS011;59647;55.838;37.292;2023-08-31T13:12:29;8.55;;;4.05;;
71800;SDS011;59647;55.838;37.292;2023-08-31T13:14:56;11.10;;;4.80;;
71800;SDS011;59647;55.838;37.292;2023-08-31T13:17:23;15.65;;;4.57;;
71800;SDS011;59647;55.838;37.292;2023-08-31T13:19:52;14.95;;;5.47;;
71800;SDS011;59647;55.838;37.292;2023-08-31T13:22:18;9.38;;;4.35;;
71800;SDS011;59647;55.838;37.292;2023-08-31T13:24:45;13.18;;;4.82;;
71800;SDS011;59647;55.838;37.292;2023-08-31T13:27:11;12.30;;;4.43;;
71800;SDS011;59647;55.838;37.292;2023-08-31T13:29:38;7.80;;;4.00;;
71800;SDS011;59647;55.838;37.292;2023-08-31T13:32:04;14.40;;;5.03;;
71800;SDS011;59647;55.838;37.292;2023-08-31T13:34:31;15.20;;;4.60;;
71800;SDS011;59647;55.838;37.292;2023-08-31T13:36:57;7.22;;;3.95;;
71800;SDS011;59647;55.838;37.292;2023-08-31T13:39:22;16.52;;;4.78;;
71800;SDS011;59647;55.838;37.292;2023-08-31T13:41:51;12.02;;;4.32;;
71800;SDS011;59647;55.838;37.292;2023-08-31T13:44:18;9.07;;;4.32;;
71800;SDS011;59647;55.838;37.292;2023-08-31T13:46:48;15.65;;;4.22;;
71800;SDS011;59647;55.838;37.292;2023-08-31T13:49:14;14.93;;;4.78;;
71800;SDS011;59647;55.838;37.292;2023-08-31T13:51:41;11.77;;;5.03;;
71800;SDS011;59647;55.838;37.292;2023-08-31T13:54:07;16.15;;;5.00;;
71800;SDS011;59647;55.838;37.292;2023-08-31T13:56:34;11.25;;;4.50;;
71800;SDS011;59647;55.838;37.292;2023-08-31T13:59:00;10.98;;;4.55;;
71800;SDS011;59647;55.838;37.292;2023-08-31T14:01:26;10.20;;;4.82;;
71800;SDS011;59647;55.838;37.292;2023-08-31T14:03:52;16.67;;;4.43;;
71800;SDS011;59647;55.838;37.292;2023-08-31T14:06:27;16.80;;;4.55;;
71800;SDS011;59647;55.838;37.292;2023-08-31T14:08:54;16.67;;;4.20;;
71800;SDS011;59647;55.838;37.292;2023-08-31T14:11:19;12.43;;;4.85;;
71800;SDS011;59647;55.838;37.292;2023-08-31T14:13:45;12.73;;;3.75;;
71800;SDS011;59647;55.838;37.292;2023-08-31T14:16:11;10.27;;;4.45;;
71800;SDS011;59647;55.838;37.292;2023-08-31T14:18:38;10.40;;;3.90;;
71800;SDS011;59647;55.838;37.292;2023-08-31T14:21:04;16.30;;;4.95;;
71800;SDS011;59647;55.838;37.292;2023-08-31T14:23:30;18.70;;;4.97;;
71800;SDS011;59647;55.838;37.292;2023-08-31T14:26:02;11.73;;;4.20;;
71800;SDS011;59647;55.838;37.292;2023-08-31T14:28:28;8.13;;;4.03;;
71800;SDS011;59647;55.838;37.292;2023-08-31T14:30:54;9.20;;;4.50;;
71800;SDS011;59647;55.838;37.292;2023-08-31T14:33:20;11.30;;;5.05;;
71800;SDS011;59647;55.838;37.292;2023-08-31T14:35:45;12.88;;;4.57;;
71800;SDS011;59647;55.838;37.292;2023-08-31T14:38:19;13.98;;;4.60;;
71800;SDS011;59647;55.838;37.292;2023-08-31T14:40:46;9.40;;;5.38;;